Time;durP1;ratioP1;P1;durP2;ratioP2;P2;SDS_P1;SDS_P2;PMS_P1;PMS_P2;Temp;Humidity;BMP_temperature;BMP_pressure;BME280_temperature;BME280_humidity;BME280_pressure;Samples;Min_cycle;Max_cycle;Signal;HPM_P1;HPM_P2
2022/06/24 00:01:31;;;;;;;;;;;22.60;99.90;;;;;;5091488;28;19932;-81
2022/06/24 00:03:57;;;;;;;;;;;22.60;99.90;;;;;;5058433;28;19924;-82
2022/06/24 00:06:27;;;;;;;;;;;22.60;99.90;;;;;;5039839;28;19925;-81
2022/06/24 00:08:56;;;;;;;;;;;22.60;99.90;;;;;;5088902;28;20315;-81
2022/06/24 00:11:23;;;;;;;;;;;22.60;99.90;;;;;;5038235;28;19931;-82
2022/06/24 00:13:49;;;;;;;;;;;22.60;99.90;;;;;;5038623;28;19932;-81
2022/06/24 00:16:14;;;;;;;;;;;22.50;99.90;;;;;;5041095;28;19981;-81
2022/06/24 00:18:40;;;;;;;;;;;22.50;99.90;;;;;;5058690;28;19986;-81
2022/06/24 00:21:12;;;;;;;;;;;22.50;99.90;;;;;;5066397;28;19924;-81
2022/06/24 00:23:39;;;;;;;;;;;22.50;99.90;;;;;;5061156;28;20431;-81
2022/06/24 00:26:05;;;;;;;;;;;22.40;99.90;;;;;;5085527;28;19948;-84
2022/06/24 00:28:31;;;;;;;;;;;22.40;99.90;;;;;;5067291;28;20356;-81
2022/06/24 00:30:57;;;;;;;;;;;22.40;99.90;;;;;;5026368;28;19924;-81
2022/06/24 00:33:23;;;;;;;;;;;22.30;99.90;;;;;;5061245;28;19989;-81
2022/06/24 00:35:50;;;;;;;;;;;22.30;99.90;;;;;;5070321;28;20318;-81
2022/06/24 00:38:22;;;;;;;;;;;22.30;99.90;;;;;;5077612;28;19924;-81
2022/06/24 00:40:49;;;;;;;;;;;22.20;99.90;;;;;;5061621;28;19953;-81
2022/06/24 00:43:19;;;;;;;;;;;22.20;99.90;;;;;;5075711;28;19958;-82
2022/06/24 00:45:48;;;;;;;;;;;22.20;99.90;;;;;;5075576;28;19924;-81
2022/06/24 00:48:14;;;;;;;;;;;22.20;99.90;;;;;;5077419;28;20031;-81
2022/06/24 00:50:42;;;;;;;;;;;22.10;99.90;;;;;;5094907;28;20365;-82
2022/06/24 00:53:08;;;;;;;;;;;22.10;99.90;;;;;;5111465;28;19924;-85
2022/06/24 00:55:37;;;;;;;;;;;22.10;99.90;;;;;;5061018;28;19934;-81
2022/06/24 00:58:03;;;;;;;;;;;22.00;99.90;;;;;;5073950;28;19924;-81
2022/06/24 01:00:33;;;;;;;;;;;21.90;99.90;;;;;;5057536;28;19935;-81
2022/06/24 01:03:02;;;;;;;;;;;21.90;99.90;;;;;;5044903;28;19931;-81
2022/06/24 01:05:29;;;;;;;;;;;21.80;99.90;;;;;;5076832;28;20287;-81
2022/06/24 01:07:54;;;;;;;;;;;21.80;99.90;;;;;;5068494;28;20017;-81
2022/06/24 01:10:20;;;;;;;;;;;21.80;99.90;;;;;;5091153;28;19972;-81
2022/06/24 01:12:46;;;;;;;;;;;21.70;99.90;;;;;;5057635;28;20410;-80
2022/06/24 01:15:11;;;;;;;;;;;21.60;99.90;;;;;;5074606;28;20421;-81
2022/06/24 01:17:37;;;;;;;;;;;21.60;99.90;;;;;;5092507;28;19924;-81
2022/06/24 01:20:04;;;;;;;;;;;21.60;99.90;;;;;;5091058;28;19924;-80
2022/06/24 01:22:30;;;;;;;;;;;21.50;99.90;;;;;;5041541;28;19928;-81
2022/06/24 01:24:55;;;;;;;;;;;21.50;99.90;;;;;;5082069;28;20010;-80
2022/06/24 01:27:21;;;;;;;;;;;21.50;99.90;;;;;;5055841;28;19924;-81
2022/06/24 01:29:46;;;;;;;;;;;21.40;99.90;;;;;;5072615;28;19924;-81
2022/06/24 01:32:12;;;;;;;;;;;21.40;99.90;;;;;;5051894;28;20027;-86
2022/06/24 01:34:38;;;;;;;;;;;21.40;99.90;;;;;;5058796;28;19931;-81
2022/06/24 01:37:04;;;;;;;;;;;21.40;99.90;;;;;;5093622;28;19928;-81
2022/06/24 01:39:30;;;;;;;;;;;21.30;99.90;;;;;;5058910;28;19930;-81
2022/06/24 01:41:56;;;;;;;;;;;21.30;99.90;;;;;;5058930;28;19924;-81
2022/06/24 01:44:22;;;;;;;;;;;21.20;99.90;;;;;;5076762;28;19924;-81
2022/06/24 01:46:48;;;;;;;;;;;21.20;99.90;;;;;;5058951;28;19982;-80
2022/06/24 01:49:14;;;;;;;;;;;21.20;99.90;;;;;;5058399;28;19932;-84
2022/06/24 01:51:40;;;;;;;;;;;21.20;99.90;;;;;;5090505;28;19924;-80
2022/06/24 01:54:06;;;;;;;;;;;21.20;99.90;;;;;;5090592;28;19932;-81
2022/06/24 01:56:32;;;;;;;;;;;21.20;99.90;;;;;;5058002;28;19925;-80
2022/06/24 01:58:57;;;;;;;;;;;21.10;99.90;;;;;;5055017;28;19924;-80
2022/06/24 02:01:23;;;;;;;;;;;21.10;99.90;;;;;;5079454;28;19924;-80
2022/06/24 02:03:49;;;;;;;;;;;21.00;99.90;;;;;;5048581;28;19925;-80
2022/06/24 02:06:14;;;;;;;;;;;21.00;99.90;;;;;;5040055;28;20344;-81
2022/06/24 02:08:40;;;;;;;;;;;20.90;99.90;;;;;;5056467;28;20308;-80
2022/06/24 02:13:51;;;;;;;;;;;20.80;99.90;;;;;;5090345;28;20007;-81
2022/06/24 02:16:18;;;;;;;;;;;20.90;99.90;;;;;;5072479;28;19924;-87
2022/06/24 02:18:44;;;;;;;;;;;20.80;99.90;;;;;;5058115;28;19955;-80
2022/06/24 02:21:10;;;;;;;;;;;20.80;99.90;;;;;;5091375;28;20352;-81
2022/06/24 02:23:36;;;;;;;;;;;20.80;99.90;;;;;;5057783;28;19979;-81
2022/06/24 02:26:01;;;;;;;;;;;20.80;99.90;;;;;;5071227;28;19924;-81
2022/06/24 02:28:27;;;;;;;;;;;20.70;99.90;;;;;;5031931;28;20304;-81
2022/06/24 02:30:54;;;;;;;;;;;20.70;99.90;;;;;;5089773;28;19932;-81
2022/06/24 02:33:19;;;;;;;;;;;20.70;99.90;;;;;;5089900;28;19924;-81
2022/06/24 02:35:45;;;;;;;;;;;20.70;99.90;;;;;;5088983;28;19920;-81
2022/06/24 02:38:10;;;;;;;;;;;20.70;99.90;;;;;;5060432;28;19924;-81
2022/06/24 02:40:45;;;;;;;;;;;20.60;99.90;;;;;;5075776;28;19996;-81
2022/06/24 02:43:11;;;;;;;;;;;20.50;99.90;;;;;;5090176;28;19933;-81
2022/06/24 02:45:36;;;;;;;;;;;20.50;99.90;;;;;;5055854;28;19924;-81
2022/06/24 02:48:03;;;;;;;;;;;20.50;99.90;;;;;;5056003;28;20003;-81
2022/06/24 02:50:29;;;;;;;;;;;20.60;99.90;;;;;;5042770;28;19931;-81
2022/06/24 02:52:54;;;;;;;;;;;20.50;99.90;;;;;;5059347;28;19928;-81
2022/06/24 02:55:20;;;;;;;;;;;20.50;99.90;;;;;;5040556;28;19924;-88
2022/06/24 02:57:45;;;;;;;;;;;20.40;99.90;;;;;;5087657;28;19956;-81
2022/06/24 03:00:11;;;;;;;;;;;20.40;99.90;;;;;;5055810;28;19932;-80
2022/06/24 03:02:37;;;;;;;;;;;20.40;99.90;;;;;;5074236;28;19924;-81
2022/06/24 03:05:02;;;;;;;;;;;20.40;99.90;;;;;;5073812;28;19975;-81
2022/06/24 03:07:28;;;;;;;;;;;20.30;99.90;;;;;;5050198;28;19995;-81
2022/06/24 03:09:53;;;;;;;;;;;20.30;99.90;;;;;;5055774;28;19936;-81
2022/06/24 03:12:19;;;;;;;;;;;20.30;99.90;;;;;;5055680;28;20022;-81
2022/06/24 03:14:44;;;;;;;;;;;20.30;99.90;;;;;;5055294;28;19925;-81
2022/06/24 03:17:10;;;;;;;;;;;20.20;99.90;;;;;;5062137;28;19932;-81
2022/06/24 03:19:36;;;;;;;;;;;20.20;99.90;;;;;;5055373;28;19963;-81
2022/06/24 03:22:01;;;;;;;;;;;20.20;99.90;;;;;;5062666;28;19931;-81
2022/06/24 03:24:27;;;;;;;;;;;20.20;99.90;;;;;;5075495;28;19931;-81
2022/06/24 03:26:52;;;;;;;;;;;20.10;99.90;;;;;;5066165;28;19932;-81
2022/06/24 03:29:18;;;;;;;;;;;20.00;99.90;;;;;;5055200;28;19924;-81
2022/06/24 03:31:43;;;;;;;;;;;20.00;99.90;;;;;;5060345;28;19932;-81
2022/06/24 03:34:09;;;;;;;;;;;20.00;99.90;;;;;;5074104;28;19928;-81
2022/06/24 03:36:34;;;;;;;;;;;20.00;99.90;;;;;;5069939;28;20316;-81
2022/06/24 03:39:00;;;;;;;;;;;20.00;99.90;;;;;;5067694;28;19924;-81
2022/06/24 03:41:25;;;;;;;;;;;20.00;99.90;;;;;;5076196;28;19924;-86
2022/06/24 03:43:51;;;;;;;;;;;20.00;99.90;;;;;;5058765;28;19928;-81
2022/06/24 03:46:16;;;;;;;;;;;20.00;99.90;;;;;;5041326;28;19924;-81
2022/06/24 03:48:42;;;;;;;;;;;20.00;99.90;;;;;;5058478;28;19924;-81
2022/06/24 03:51:08;;;;;;;;;;;20.00;99.90;;;;;;5062317;28;20073;-81
2022/06/24 03:53:33;;;;;;;;;;;20.10;99.90;;;;;;5061807;28;20315;-81
2022/06/24 03:55:59;;;;;;;;;;;20.00;99.90;;;;;;5078951;28;20054;-81
2022/06/24 03:58:25;;;;;;;;;;;20.00;99.90;;;;;;5078574;28;19931;-81
2022/06/24 04:00:50;;;;;;;;;;;19.90;99.90;;;;;;5045592;28;19960;-81
2022/06/24 04:03:16;;;;;;;;;;;19.80;99.90;;;;;;5062499;28;20011;-81
2022/06/24 04:05:41;;;;;;;;;;;19.80;99.90;;;;;;5057252;28;20305;-80
2022/06/24 04:08:07;;;;;;;;;;;19.90;99.90;;;;;;5095688;28;19932;-81
2022/06/24 04:10:33;;;;;;;;;;;20.00;99.90;;;;;;5045675;28;19932;-81
2022/06/24 04:12:58;;;;;;;;;;;20.00;99.90;;;;;;5062197;28;19924;-81
2022/06/24 04:15:24;;;;;;;;;;;20.10;99.90;;;;;;5061771;28;19974;-82
2022/06/24 04:17:49;;;;;;;;;;;20.20;99.90;;;;;;5061384;28;19975;-82
2022/06/24 04:20:15;;;;;;;;;;;20.30;99.90;;;;;;5078740;28;19927;-81
2022/06/24 04:22:41;;;;;;;;;;;20.40;99.90;;;;;;5062131;28;19924;-82
2022/06/24 04:25:07;;;;;;;;;;;20.50;99.90;;;;;;5095589;28;19924;-82
2022/06/24 04:27:33;;;;;;;;;;;20.60;99.90;;;;;;5095309;28;20279;-81
2022/06/24 04:29:59;;;;;;;;;;;20.70;99.90;;;;;;5076932;28;19924;-80
2022/06/24 04:32:25;;;;;;;;;;;20.80;99.90;;;;;;5095469;28;19931;-82
2022/06/24 04:34:51;;;;;;;;;;;20.90;99.90;;;;;;5095247;28;20365;-79
2022/06/24 04:37:16;;;;;;;;;;;20.90;99.90;;;;;;5044882;28;20019;-80
2022/06/24 04:39:43;;;;;;;;;;;20.80;99.90;;;;;;5077856;28;20396;-80
2022/06/24 04:42:08;;;;;;;;;;;20.70;99.90;;;;;;5044344;28;19924;-82
2022/06/24 04:44:34;;;;;;;;;;;20.70;99.90;;;;;;5094776;28;19927;-82
2022/06/24 04:47:00;;;;;;;;;;;20.50;99.90;;;;;;5044985;28;19931;-82
2022/06/24 04:49:25;;;;;;;;;;;20.50;99.90;;;;;;5094796;28;20339;-79
2022/06/24 04:51:51;;;;;;;;;;;20.40;99.90;;;;;;5094996;28;19928;-82
2022/06/24 04:54:16;;;;;;;;;;;20.30;99.90;;;;;;5078312;28;19957;-81
2022/06/24 04:56:42;;;;;;;;;;;20.30;99.90;;;;;;5061139;28;20374;-81
2022/06/24 04:59:08;;;;;;;;;;;20.20;99.90;;;;;;5077991;28;19978;-81
2022/06/24 05:01:33;;;;;;;;;;;20.10;99.90;;;;;;5110490;28;19936;-81
2022/06/24 05:04:00;;;;;;;;;;;20.20;99.90;;;;;;5081044;28;19924;-81
2022/06/24 05:06:25;;;;;;;;;;;20.00;99.90;;;;;;5064913;28;19931;-82
2022/06/24 05:08:51;;;;;;;;;;;19.90;99.90;;;;;;5098023;28;20264;-81
2022/06/24 05:11:16;;;;;;;;;;;19.90;99.90;;;;;;5068251;28;19924;-81
2022/06/24 05:13:42;;;;;;;;;;;19.90;99.90;;;;;;5111460;28;19931;-81
2022/06/24 05:16:08;;;;;;;;;;;19.90;99.90;;;;;;5077221;28;19931;-80
2022/06/24 05:18:33;;;;;;;;;;;19.90;99.90;;;;;;5077369;28;19985;-80
2022/06/24 05:20:59;;;;;;;;;;;20.00;99.90;;;;;;5094138;28;19924;-80
2022/06/24 05:23:24;;;;;;;;;;;20.00;99.90;;;;;;5111588;28;19924;-81
2022/06/24 05:25:50;;;;;;;;;;;20.00;99.90;;;;;;5111327;28;19924;-82
2022/06/24 05:28:15;;;;;;;;;;;20.00;99.90;;;;;;5077624;28;19924;-82
2022/06/24 05:30:41;;;;;;;;;;;19.90;99.90;;;;;;5093995;28;19985;-82
2022/06/24 05:33:06;;;;;;;;;;;20.00;99.90;;;;;;5076723;28;20424;-81
2022/06/24 05:35:32;;;;;;;;;;;19.90;99.90;;;;;;5060670;28;19924;-81
2022/06/24 05:37:57;;;;;;;;;;;19.90;99.90;;;;;;5076694;28;19935;-83
2022/06/24 05:40:23;;;;;;;;;;;19.90;99.90;;;;;;5077099;28;19924;-80
2022/06/24 05:42:48;;;;;;;;;;;19.80;99.90;;;;;;5076721;28;19924;-85
2022/06/24 05:45:14;;;;;;;;;;;19.70;99.90;;;;;;5093699;28;19928;-85
2022/06/24 05:47:40;;;;;;;;;;;19.70;99.90;;;;;;5060265;28;19931;-85
2022/06/24 05:50:05;;;;;;;;;;;19.60;99.90;;;;;;5060536;28;19924;-83
2022/06/24 05:55:15;;;;;;;;;;;19.50;99.90;;;;;;5091195;28;19971;-82
2022/06/24 05:57:41;;;;;;;;;;;19.50;99.90;;;;;;5076517;28;19982;-88
2022/06/24 06:00:07;;;;;;;;;;;19.50;99.90;;;;;;5110799;28;20428;-82
2022/06/24 06:02:32;;;;;;;;;;;19.60;99.90;;;;;;5060246;28;19928;-82
2022/06/24 06:04:58;;;;;;;;;;;19.60;99.90;;;;;;5093216;28;20387;-82
2022/06/24 06:07:24;;;;;;;;;;;19.60;99.90;;;;;;5076554;28;19928;-83
2022/06/24 06:09:49;;;;;;;;;;;19.60;99.90;;;;;;5092668;28;19924;-82
2022/06/24 06:12:15;;;;;;;;;;;19.60;99.90;;;;;;5059351;28;20454;-83
2022/06/24 06:14:41;;;;;;;;;;;19.70;99.90;;;;;;5073379;28;19977;-82
2022/06/24 06:17:07;;;;;;;;;;;19.60;99.90;;;;;;5075958;28;19924;-82
2022/06/24 06:19:34;;;;;;;;;;;19.50;99.90;;;;;;5110469;28;20311;-81
2022/06/24 06:22:02;;;;;;;;;;;19.50;99.90;;;;;;5076364;28;19947;-80
2022/06/24 06:24:30;;;;;;;;;;;19.40;99.90;;;;;;5076161;28;19928;-79
2022/06/24 06:26:56;;;;;;;;;;;19.40;99.90;;;;;;5058703;28;20318;-76
2022/06/24 06:29:22;;;;;;;;;;;19.40;99.90;;;;;;5101827;28;20002;-80
2022/06/24 06:31:48;;;;;;;;;;;19.30;99.90;;;;;;5083889;28;19967;-77
2022/06/24 06:34:14;;;;;;;;;;;19.30;99.90;;;;;;5082920;28;19928;-79
2022/06/24 06:36:40;;;;;;;;;;;19.30;99.90;;;;;;5071732;28;19935;-79
2022/06/24 06:39:05;;;;;;;;;;;19.30;99.90;;;;;;5072678;28;19929;-81
2022/06/24 06:41:31;;;;;;;;;;;19.30;99.90;;;;;;5092891;28;19924;-81
2022/06/24 06:43:56;;;;;;;;;;;19.20;99.90;;;;;;5076073;28;20061;-84
2022/06/24 06:46:22;;;;;;;;;;;19.10;99.90;;;;;;5042746;28;19931;-84
2022/06/24 06:48:47;;;;;;;;;;;19.10;99.90;;;;;;5042693;28;19931;-84
2022/06/24 06:51:13;;;;;;;;;;;19.10;99.90;;;;;;5042762;28;19928;-83
2022/06/24 06:53:38;;;;;;;;;;;19.00;99.90;;;;;;5059207;28;19932;-85
2022/06/24 06:56:04;;;;;;;;;;;19.10;99.90;;;;;;5042599;28;19931;-85
2022/06/24 06:58:30;;;;;;;;;;;19.10;99.90;;;;;;5075618;28;20279;-84
2022/06/24 07:00:55;;;;;;;;;;;19.10;99.90;;;;;;5059055;28;19928;-87
2022/06/24 07:03:21;;;;;;;;;;;19.10;99.90;;;;;;5059336;28;19931;-86
2022/06/24 07:05:46;;;;;;;;;;;19.10;99.90;;;;;;5092975;28;19924;-79
2022/06/24 07:08:13;;;;;;;;;;;19.00;99.90;;;;;;5075529;28;19924;-81
2022/06/24 07:10:42;;;;;;;;;;;19.10;99.90;;;;;;5075448;28;19931;-81
2022/06/24 07:13:08;;;;;;;;;;;19.10;99.90;;;;;;5075168;28;19924;-80
2022/06/24 07:15:33;;;;;;;;;;;19.20;99.90;;;;;;5058540;28;19935;-82
2022/06/24 07:17:59;;;;;;;;;;;19.20;99.90;;;;;;5054353;28;20018;-83
2022/06/24 07:20:25;;;;;;;;;;;19.30;99.90;;;;;;5074027;28;20023;-82
2022/06/24 07:22:51;;;;;;;;;;;19.40;99.90;;;;;;5052618;28;19939;-82
2022/06/24 07:25:16;;;;;;;;;;;19.40;99.90;;;;;;5057863;28;20037;-82
2022/06/24 07:27:42;;;;;;;;;;;19.30;99.90;;;;;;5030225;28;20422;-82
2022/06/24 07:30:08;;;;;;;;;;;19.40;99.90;;;;;;5084937;28;20015;-85
2022/06/24 07:32:33;;;;;;;;;;;19.40;99.90;;;;;;5046157;28;20383;-81
2022/06/24 07:34:59;;;;;;;;;;;19.40;99.90;;;;;;5077015;28;20291;-86
2022/06/24 07:37:24;;;;;;;;;;;19.50;99.90;;;;;;5072637;28;19924;-82
2022/06/24 07:39:50;;;;;;;;;;;19.50;99.90;;;;;;5061400;28;20425;-83
2022/06/24 07:42:16;;;;;;;;;;;19.60;99.90;;;;;;5073312;28;19964;-84
2022/06/24 07:44:43;;;;;;;;;;;19.60;99.90;;;;;;5090412;28;19929;-83
2022/06/24 07:47:12;;;;;;;;;;;19.60;99.90;;;;;;5056355;28;19925;-84
2022/06/24 07:49:37;;;;;;;;;;;19.70;99.90;;;;;;5039745;28;20047;-83
2022/06/24 07:52:04;;;;;;;;;;;19.80;99.90;;;;;;5072891;28;20422;-83
2022/06/24 07:54:30;;;;;;;;;;;19.80;99.90;;;;;;5043555;28;19924;-83
2022/06/24 07:56:57;;;;;;;;;;;19.90;99.90;;;;;;5050163;28;19928;-83
2022/06/24 07:59:23;;;;;;;;;;;19.90;99.90;;;;;;5039680;28;19929;-83
2022/06/24 08:01:49;;;;;;;;;;;20.00;99.90;;;;;;5039926;28;19979;-83
2022/06/24 08:04:15;;;;;;;;;;;20.10;99.90;;;;;;5089519;28;19982;-83
2022/06/24 08:06:45;;;;;;;;;;;20.10;99.90;;;;;;5056405;28;20008;-83
2022/06/24 08:09:10;;;;;;;;;;;20.20;99.90;;;;;;5089644;28;20560;-83
2022/06/24 08:11:36;;;;;;;;;;;20.20;99.90;;;;;;5072811;28;20003;-82
2022/06/24 08:14:02;;;;;;;;;;;20.30;99.90;;;;;;5044826;28;19950;-82
2022/06/24 08:16:27;;;;;;;;;;;20.20;99.90;;;;;;5048831;28;19925;-83
2022/06/24 08:18:54;;;;;;;;;;;20.20;99.90;;;;;;5073898;28;19928;-83
2022/06/24 08:21:20;;;;;;;;;;;20.20;99.90;;;;;;5059065;28;19934;-82
2022/06/24 08:23:46;;;;;;;;;;;20.30;99.90;;;;;;5059207;28;19928;-82
2022/06/24 08:26:11;;;;;;;;;;;20.30;99.90;;;;;;5058955;28;19928;-84
2022/06/24 08:28:37;;;;;;;;;;;20.30;99.90;;;;;;5027468;28;19932;-83
2022/06/24 08:31:02;;;;;;;;;;;20.30;99.90;;;;;;5055864;28;19925;-88
2022/06/24 08:33:28;;;;;;;;;;;20.20;99.90;;;;;;5072528;28;20455;-86
2022/06/24 08:35:54;;;;;;;;;;;20.20;99.90;;;;;;5055031;28;19986;-85
2022/06/24 08:38:19;;;;;;;;;;;20.10;99.90;;;;;;5073004;28;19928;-84
2022/06/24 08:40:46;;;;;;;;;;;20.10;99.90;;;;;;5055880;28;19967;-85
2022/06/24 08:43:12;;;;;;;;;;;20.00;99.90;;;;;;5051334;28;19977;-87
2022/06/24 08:45:38;;;;;;;;;;;20.00;99.90;;;;;;5071618;28;20303;-87
2022/06/24 08:48:06;;;;;;;;;;;20.00;99.90;;;;;;5077678;28;19929;-86
2022/06/24 08:50:32;;;;;;;;;;;19.80;99.90;;;;;;5056674;28;19928;-86
2022/06/24 08:52:59;;;;;;;;;;;19.70;99.90;;;;;;5058686;28;19936;-86
2022/06/24 08:55:25;;;;;;;;;;;19.70;99.90;;;;;;5058636;28;19990;-86
2022/06/24 08:57:50;;;;;;;;;;;19.60;99.90;;;;;;5075122;28;19928;-85
2022/06/24 09:00:18;;;;;;;;;;;19.50;99.90;;;;;;5041838;28;20307;-85
2022/06/24 09:02:44;;;;;;;;;;;19.50;99.90;;;;;;5075460;28;19935;-86
2022/06/24 09:05:10;;;;;;;;;;;19.40;99.90;;;;;;5091862;28;19928;-83
2022/06/24 09:07:36;;;;;;;;;;;19.30;99.90;;;;;;5075144;28;19996;-85
2022/06/24 09:10:10;;;;;;;;;;;19.30;99.90;;;;;;5074863;28;20736;-84
2022/06/24 09:12:37;;;;;;;;;;;19.20;99.90;;;;;;5074995;28;19928;-85
2022/06/24 09:15:03;;;;;;;;;;;19.20;99.90;;;;;;5065483;28;20390;-82
2022/06/24 09:17:29;;;;;;;;;;;19.20;99.90;;;;;;5094345;28;20283;-84
2022/06/24 09:20:07;;;;;;;;;;;19.00;99.90;;;;;;5078182;28;20331;-85
2022/06/24 09:22:33;;;;;;;;;;;19.10;99.90;;;;;;5095175;28;19927;-85
2022/06/24 09:25:00;;;;;;;;;;;19.00;99.90;;;;;;5076161;28;19994;-86
2022/06/24 09:27:25;;;;;;;;;;;18.80;99.90;;;;;;5094663;28;19927;-85
2022/06/24 09:29:51;;;;;;;;;;;18.80;99.90;;;;;;5094616;28;19923;-84
2022/06/24 09:32:17;;;;;;;;;;;18.70;99.90;;;;;;5095071;28;19953;-86
2022/06/24 09:35:01;;;;;;;;;;;18.60;99.90;;;;;;5094293;28;19967;-84
2022/06/24 09:37:37;;;;;;;;;;;18.50;99.90;;;;;;5105766;28;19935;-86
2022/06/24 09:40:18;;;;;;;;;;;18.50;99.90;;;;;;5083485;28;20372;-83
2022/06/24 09:42:54;;;;;;;;;;;18.40;99.90;;;;;;5056659;28;20396;-82
2022/06/24 09:45:20;;;;;;;;;;;18.40;99.90;;;;;;5068905;28;19928;-83
2022/06/24 09:47:49;;;;;;;;;;;18.40;99.90;;;;;;5074687;28;20280;-83
2022/06/24 09:50:19;;;;;;;;;;;18.40;99.90;;;;;;5074009;28;19928;-84
2022/06/24 09:52:44;;;;;;;;;;;18.40;99.90;;;;;;5073361;28;20019;-82
2022/06/24 09:55:10;;;;;;;;;;;18.50;99.90;;;;;;5072942;28;20386;-83
2022/06/24 09:57:36;;;;;;;;;;;18.50;99.90;;;;;;5059797;28;20356;-83
2022/06/24 10:02:47;;;;;;;;;;;18.50;99.90;;;;;;5088391;28;19967;-82
2022/06/24 10:05:14;;;;;;;;;;;18.60;99.90;;;;;;5089737;28;20128;-83
2022/06/24 10:07:44;;;;;;;;;;;18.70;99.90;;;;;;5067748;28;19928;-83
2022/06/24 10:10:10;;;;;;;;;;;18.70;99.90;;;;;;5049063;28;20353;-84
2022/06/24 10:12:39;;;;;;;;;;;18.70;99.90;;;;;;5079535;28;20334;-81
2022/06/24 10:15:05;;;;;;;;;;;18.80;99.90;;;;;;5066537;28;19932;-81
2022/06/24 10:17:31;;;;;;;;;;;18.80;99.90;;;;;;5053002;28;19982;-80
2022/06/24 10:19:58;;;;;;;;;;;18.90;99.90;;;;;;5065262;28;19996;-80
2022/06/24 10:22:39;;;;;;;;;;;19.00;99.90;;;;;;5061013;28;19928;-80
2022/06/24 10:25:05;;;;;;;;;;;19.00;99.90;;;;;;5071063;28;19935;-80
2022/06/24 10:27:49;;;;;;;;;;;19.10;99.90;;;;;;5073829;28;19936;-80
2022/06/24 10:30:34;;;;;;;;;;;19.10;99.90;;;;;;5091802;28;19927;-80
2022/06/24 10:33:12;;;;;;;;;;;19.00;99.90;;;;;;5096545;28;19932;-80
2022/06/24 10:35:57;;;;;;;;;;;19.10;99.90;;;;;;5081222;28;19935;-80
2022/06/24 10:38:26;;;;;;;;;;;19.10;99.90;;;;;;5062279;28;19985;-80
2022/06/24 10:40:52;;;;;;;;;;;19.10;99.90;;;;;;5074529;28;19932;-80
2022/06/24 10:43:36;;;;;;;;;;;19.10;99.90;;;;;;5060000;28;19934;-80
2022/06/24 10:46:20;;;;;;;;;;;19.10;99.90;;;;;;5072427;28;19930;-80
2022/06/24 10:48:49;;;;;;;;;;;19.00;99.90;;;;;;5056605;28;19935;-80
2022/06/24 10:51:15;;;;;;;;;;;19.00;99.90;;;;;;5072964;28;19954;-80
2022/06/24 10:53:59;;;;;;;;;;;19.00;99.90;;;;;;5106628;28;19947;-80
2022/06/24 10:56:37;;;;;;;;;;;19.00;99.90;;;;;;5086777;28;20342;-80
2022/06/24 10:59:02;;;;;;;;;;;19.10;99.90;;;;;;5052903;28;19931;-80
2022/06/24 11:01:28;;;;;;;;;;;19.10;99.90;;;;;;5073077;28;19929;-80
2022/06/24 11:03:54;;;;;;;;;;;19.20;99.90;;;;;;5092934;28;20030;-80
2022/06/24 11:06:20;;;;;;;;;;;19.30;99.90;;;;;;5059489;28;20012;-81
2022/06/24 11:08:45;;;;;;;;;;;19.30;99.90;;;;;;5089794;28;19986;-80
2022/06/24 11:11:24;;;;;;;;;;;19.40;99.90;;;;;;5072879;28;19928;-80
2022/06/24 11:13:50;;;;;;;;;;;19.40;99.90;;;;;;5070866;28;20336;-80
2022/06/24 11:16:16;;;;;;;;;;;19.50;99.90;;;;;;5061860;28;20064;-80
2022/06/24 11:18:42;;;;;;;;;;;19.50;99.90;;;;;;5064600;28;19924;-80
2022/06/24 11:21:08;;;;;;;;;;;19.50;99.90;;;;;;5092143;28;19924;-80
2022/06/24 11:23:35;;;;;;;;;;;19.60;99.90;;;;;;5078831;28;20482;-80
2022/06/24 11:26:02;;;;;;;;;;;19.60;99.90;;;;;;5108325;28;19924;-80
2022/06/24 11:28:29;;;;;;;;;;;19.70;99.90;;;;;;5075273;28;19924;-79
2022/06/24 11:30:56;;;;;;;;;;;19.80;99.90;;;;;;5092018;28;19932;-80
2022/06/24 11:33:22;;;;;;;;;;;19.80;99.90;;;;;;5057376;28;20356;-80
2022/06/24 11:35:48;;;;;;;;;;;19.90;99.90;;;;;;5058775;28;20333;-80
2022/06/24 11:38:14;;;;;;;;;;;19.90;99.90;;;;;;5057948;28;19932;-80
2022/06/24 11:40:41;;;;;;;;;;;19.90;99.90;;;;;;5074627;28;19924;-80
2022/06/24 11:43:11;;;;;;;;;;;20.00;99.90;;;;;;5056719;28;19998;-79
2022/06/24 11:45:39;;;;;;;;;;;20.00;99.90;;;;;;5108976;28;19924;-80
2022/06/24 11:48:05;;;;;;;;;;;20.00;99.90;;;;;;5103943;28;19928;-83
2022/06/24 11:50:32;;;;;;;;;;;20.10;99.90;;;;;;5109124;28;19946;-81
2022/06/24 11:52:58;;;;;;;;;;;20.10;99.90;;;;;;5074854;28;19977;-83
2022/06/24 11:55:28;;;;;;;;;;;20.20;99.90;;;;;;5091760;28;19977;-83
2022/06/24 11:57:55;;;;;;;;;;;20.30;99.90;;;;;;5057760;28;19924;-83
2022/06/24 12:00:21;;;;;;;;;;;20.30;99.90;;;;;;5074309;28;20014;-83
2022/06/24 12:02:47;;;;;;;;;;;20.40;99.90;;;;;;5050147;28;19929;-85
2022/06/24 12:05:13;;;;;;;;;;;20.50;99.90;;;;;;5086529;28;19936;-82
2022/06/24 12:07:39;;;;;;;;;;;20.60;99.90;;;;;;5058210;28;19934;-84
2022/06/24 12:10:06;;;;;;;;;;;20.70;99.90;;;;;;5064241;28;20021;-84
2022/06/24 12:12:32;;;;;;;;;;;20.80;99.90;;;;;;5072314;28;19928;-81
2022/06/24 12:14:58;;;;;;;;;;;20.80;99.90;;;;;;5055933;28;19928;-85
2022/06/24 12:17:23;;;;;;;;;;;20.90;99.90;;;;;;5077204;28;19932;-85
2022/06/24 12:19:57;;;;;;;;;;;20.90;99.90;;;;;;5070406;28;19950;-84
2022/06/24 12:22:22;;;;;;;;;;;20.90;99.90;;;;;;5064616;28;19927;-84
2022/06/24 12:24:58;;;;;;;;;;;20.90;99.90;;;;;;5070856;28;19954;-82
2022/06/24 12:27:31;;;;;;;;;;;20.80;99.90;;;;;;5061433;28;19936;-84
2022/06/24 12:29:56;;;;;;;;;;;20.90;99.90;;;;;;5065203;28;19928;-82
2022/06/24 12:32:22;;;;;;;;;;;21.20;99.90;;;;;;5056187;28;19935;-87
2022/06/24 12:34:53;;;;;;;;;;;21.50;99.90;;;;;;5055731;28;20059;-83
2022/06/24 12:37:19;;;;;;;;;;;21.80;99.90;;;;;;5038393;28;20439;-84
2022/06/24 12:39:47;;;;;;;;;;;22.10;99.90;;;;;;5098955;28;19939;-84
2022/06/24 12:42:13;;;;;;;;;;;22.20;99.90;;;;;;5048581;28;20075;-85
2022/06/24 12:44:39;;;;;;;;;;;22.20;99.90;;;;;;5075286;28;19928;-82
2022/06/24 12:52:33;;;;;;;;;;;22.00;99.90;;;;;;5074260;28;20381;-84
2022/06/24 12:54:59;;;;;;;;;;;22.00;99.90;;;;;;5089973;28;20031;-85
2022/06/24 12:57:24;;;;;;;;;;;21.90;99.90;;;;;;5101807;28;19932;-86
2022/06/24 12:59:50;;;;;;;;;;;22.00;99.90;;;;;;5083499;28;19930;-85
2022/06/24 13:02:15;;;;;;;;;;;22.00;99.90;;;;;;5074608;28;20028;-86
2022/06/24 13:04:41;;;;;;;;;;;22.00;99.90;;;;;;5106860;28;19931;-84
2022/06/24 13:07:06;;;;;;;;;;;22.10;99.90;;;;;;5086400;28;19935;-83
2022/06/24 13:09:32;;;;;;;;;;;22.10;99.90;;;;;;5075682;28;19932;-84
2022/06/24 13:11:58;;;;;;;;;;;22.20;99.90;;;;;;5066166;28;20020;-85
2022/06/24 13:14:23;;;;;;;;;;;22.30;99.90;;;;;;5061889;28;19928;-84
2022/06/24 13:16:49;;;;;;;;;;;22.50;99.90;;;;;;5071197;28;19925;-85
2022/06/24 13:19:15;;;;;;;;;;;22.60;99.90;;;;;;5037699;28;20023;-85
2022/06/24 13:21:41;;;;;;;;;;;22.80;99.90;;;;;;5071013;28;20368;-84
2022/06/24 13:24:07;;;;;;;;;;;22.90;99.90;;;;;;5069130;28;20011;-84
2022/06/24 13:26:32;;;;;;;;;;;23.10;99.90;;;;;;5074059;28;20038;-83
2022/06/24 13:28:58;;;;;;;;;;;23.10;99.90;;;;;;5050333;28;19955;-84
2022/06/24 13:31:24;;;;;;;;;;;23.20;99.90;;;;;;5076365;28;19977;-83
2022/06/24 13:33:49;;;;;;;;;;;23.40;99.90;;;;;;5080881;28;19939;-84
2022/06/24 13:36:15;;;;;;;;;;;23.60;99.90;;;;;;5057855;28;19934;-83
2022/06/24 13:38:40;;;;;;;;;;;23.80;99.90;;;;;;5057051;28;19924;-84
2022/06/24 13:41:06;;;;;;;;;;;24.00;99.90;;;;;;5062379;28;20491;-84
2022/06/24 13:43:32;;;;;;;;;;;24.40;99.90;;;;;;5092654;28;19924;-85
2022/06/24 13:45:57;;;;;;;;;;;24.90;99.90;;;;;;5077806;28;19924;-85
2022/06/24 13:48:23;;;;;;;;;;;25.20;99.90;;;;;;5093513;28;19945;-85
2022/06/24 13:50:49;;;;;;;;;;;25.50;99.90;;;;;;5107807;28;19928;-84
2022/06/24 13:53:14;;;;;;;;;;;25.60;99.90;;;;;;5086253;28;19974;-85
2022/06/24 13:55:40;;;;;;;;;;;25.60;99.90;;;;;;5084502;28;19936;-84
2022/06/24 13:58:06;;;;;;;;;;;25.70;99.90;;;;;;5057319;28;19924;-84
2022/06/24 14:00:31;;;;;;;;;;;25.60;99.90;;;;;;5069937;28;20406;-84
2022/06/24 14:02:57;;;;;;;;;;;25.80;99.90;;;;;;5090711;28;19924;-83
2022/06/24 14:05:23;;;;;;;;;;;26.00;99.90;;;;;;5048882;28;19928;-85
2022/06/24 14:07:48;;;;;;;;;;;26.30;99.90;;;;;;5064024;28;20474;-85
2022/06/24 14:10:14;;;;;;;;;;;26.70;99.90;;;;;;5040764;28;19935;-84
2022/06/24 14:12:40;;;;;;;;;;;27.20;99.90;;;;;;5075579;28;20390;-83
2022/06/24 14:15:07;;;;;;;;;;;27.60;99.90;;;;;;5063127;28;19928;-85
2022/06/24 14:17:33;;;;;;;;;;;27.50;99.90;;;;;;5074515;28;19935;-82
2022/06/24 14:19:59;;;;;;;;;;;27.20;99.90;;;;;;5067706;28;19924;-84
2022/06/24 14:22:27;;;;;;;;;;;27.50;99.90;;;;;;5057736;28;20081;-85
2022/06/24 14:24:52;;;;;;;;;;;27.80;99.90;;;;;;5104340;28;19928;-83
2022/06/24 14:27:18;;;;;;;;;;;28.10;99.90;;;;;;5057368;28;19924;-85